Main page
METAR-TAF:

METAR-TAF

Airports :

Dakar, Senegal

Léopold Sédar Senghor International Airport

latitude: 14-44N, longitude: 017-30W, elevation: 27 m

Current weather observation

The report was made 1 hour and 10 minutes ago, at 18:00 UTC
Wind 14 kt from the North
Temperature 21°C
Humidity 64%
Pressure 1013 hPa
Visibility: 6000 m

METAR: GOOY 191800Z 36014KT 6000 NSC 21/14 Q1013

Time: 19:10 (19:10 UTC)

Forecast

The report was made 1 hour and 40 minutes ago, at 17:30 UTC
Forecast valid from 19 at 18 UTC to 20 at 24 UTC
Wind 15 kt from the North/Northeast
Visibility: 8000 m

TAF: GOOY 191730Z 1918/2024 02015KT 8000 NSC

Weather observations and forecasts of more than 4000 airports (METAR and TAF reports).

The available stations are represented by yellow and red dots on the map.

Hover mouse over dot to see the name of the station.

Then click to see weather observations and forecasts.

To change the map : click on the green buttons with a black cross to zoom in, on the green button with a dash to zoom out, or on the green arrows for adjacent maps.


METAR-TAF: